Salt Lake City, Utah
Traffic Map
Current Weather Conditions
Salt Lake City, Utah
Few Clouds Haze
Few Clouds
28°
Feels Like: 23°
Wind Chill: 23° Ceiling: Unl
Heat Index: 28° Visibility: 5mi
Dew Point: 25° Wind: 5mph
Humidity: 88% Direction: 150° (SSE)
Pressure: 30.43in Gusts: 0mph
Raw Report DataKSLC 141554Z 15004KT 5SM BR FEW035 M02/M04 A3043 RMK AO2 SLP325 T10221039
Traffic Incident Summary
Active as of:
Severity:
Category:
InformationThere was an issue retrieving the traffic information for this location. Please try a different location or try again shortly.
Advertisements